Sandbach, United Kingdom
Current Conditions -  °F | °C
As of 1:20 AM on Monday 24 Nov 2014 (Local Time) from EGCC Reporting Station
Scattered Clouds Scattered Clouds  
Wind Chill: 32°   Ceiling: Unl
Heat Index: 37°   Visibility: 6mi
Dew Point: 37°   Wind: 7mph
Humidity: 100%   Direction: 190°S
Pressure: 30.18"   Gusts: NA
Location:  53.14°N, 2.36°W
Report Text: EGCC 240120Z AUTO 19006KT 9999 FEW026 SCT032 03/03 Q1022
Loading
Personal Weather Stations






























Interactive Weather Map New forecast layout! Learn more

10-Day Weather Forecast

Advertisements
Track Severe Weather on mobile